createdAt,value
2023-04-23T04:54:44.759Z,99591.03
2023-04-23T04:57:48.001Z,99595.28
2023-04-23T05:00:54.556Z,99588.66
2023-04-23T05:03:58.288Z,99592.56
2023-04-23T05:07:01.503Z,99589.06
2023-04-23T05:10:08.793Z,99583.63
2023-04-23T05:13:11.869Z,99581.31
2023-04-23T05:16:14.882Z,99571.19
2023-04-23T05:19:17.756Z,99566.81
2023-04-23T05:22:20.726Z,99560.91
2023-04-23T05:25:24.950Z,99573.34
2023-04-23T05:28:27.838Z,99579.78
2023-04-23T05:31:35.248Z,99578.34
2023-04-23T05:34:38.114Z,99582.56
2023-04-23T05:37:41.199Z,99588.97
2023-04-23T05:40:47.769Z,99586.56
2023-04-23T05:43:50.780Z,99587.31
2023-04-23T05:46:54.145Z,99593.94
2023-04-23T05:49:57.768Z,99605.19
2023-04-23T05:53:01.469Z,99591.44
2023-04-23T05:56:06.010Z,99608.94
2023-04-23T05:59:08.764Z,99604.69
2023-04-23T06:02:12.304Z,99596.16
2023-04-23T06:05:15.208Z,99603.41
2023-04-23T06:08:18.392Z,99604.72
2023-04-23T06:11:22.343Z,99600.84
2023-04-23T06:14:24.815Z,99601.69
2023-04-23T06:17:27.298Z,99615.88
2023-04-23T06:20:30.541Z,99604.88
2023-04-23T06:23:33.602Z,99596.41
2023-04-23T06:26:37.435Z,99604.59
2023-04-23T06:29:39.869Z,99604.44
2023-04-23T06:32:42.685Z,99601.34
2023-04-23T06:35:46.784Z,99607.22
2023-04-23T06:38:49.850Z,99608.16
2023-04-23T06:41:53.912Z,99615.03
2023-04-23T06:44:56.598Z,99619.75
2023-04-23T06:47:59.110Z,99626.16
2023-04-23T06:51:01.584Z,99616.66
2023-04-23T06:54:04.113Z,99607.47
2023-04-23T06:57:08.060Z,99608.28
2023-04-23T07:00:12.150Z,99608.13
2023-04-23T07:03:14.795Z,99612.47
2023-04-23T07:06:17.409Z,99601.22
2023-04-23T07:09:19.914Z,99607.94
2023-04-23T07:12:23.814Z,99608.38
2023-04-23T07:15:26.344Z,99609.81
2023-04-23T07:18:28.872Z,99607.84
2023-04-23T07:21:32.950Z,99610.78
2023-04-23T07:24:35.463Z,99609.19
2023-04-23T07:27:39.313Z,99616.00
2023-04-23T07:30:41.908Z,99607.69
2023-04-23T07:33:44.442Z,99609.44
2023-04-23T07:36:46.918Z,99615.59
2023-04-23T07:39:49.613Z,99613.59
2023-04-23T07:42:53.431Z,99620.88
2023-04-23T07:45:55.923Z,99630.06
2023-04-23T07:48:58.536Z,99626.13
2023-04-23T07:52:01.005Z,99625.94
2023-04-23T07:55:03.535Z,99631.75
2023-04-23T07:58:07.554Z,99627.53
2023-04-23T08:01:10.254Z,99636.59
2023-04-23T08:04:14.114Z,99631.66
2023-04-23T08:07:16.805Z,99634.06
2023-04-23T08:10:19.319Z,99639.78
2023-04-23T08:13:23.245Z,99636.81
2023-04-23T08:16:26.529Z,99624.41
2023-04-23T08:19:32.228Z,99616.78
2023-04-23T08:22:34.726Z,99617.25
2023-04-23T08:25:37.211Z,99606.25
2023-04-23T08:28:40.997Z,99605.50
2023-04-23T08:31:43.500Z,99605.75
2023-04-23T08:34:45.978Z,99609.81
2023-04-23T08:37:48.601Z,99602.91
2023-04-23T08:40:57.286Z,99601.44
2023-04-23T08:44:07.535Z,99602.97
2023-04-23T08:47:13.472Z,99604.78
2023-04-23T08:50:17.805Z,99607.94
2023-04-23T08:53:21.643Z,99610.09
2023-04-23T08:56:25.507Z,99611.69
2023-04-23T08:59:32.704Z,99611.44
2023-04-23T09:02:36.258Z,99616.38
2023-04-23T09:05:39.111Z,99610.09
2023-04-23T09:08:41.874Z,99614.94
2023-04-23T09:11:44.984Z,99617.66
2023-04-23T09:14:51.034Z,99614.91
2023-04-23T09:17:53.499Z,99604.34
2023-04-23T09:20:56.104Z,99601.06
2023-04-23T09:23:58.586Z,99613.06
2023-04-23T09:27:01.119Z,99631.19
2023-04-23T09:30:07.451Z,99632.00
2023-04-23T09:33:12.596Z,99630.41
2023-04-23T09:36:16.540Z,99639.78
2023-04-23T09:39:20.434Z,99641.69
2023-04-23T09:42:24.617Z,99642.94
2023-04-23T09:45:29.888Z,99642.44
2023-04-23T09:48:41.733Z,99642.13
2023-04-23T09:51:46.502Z,99631.78
2023-04-23T09:54:49.059Z,99630.84
2023-04-23T09:57:51.592Z,99649.66
2023-04-23T10:01:07.617Z,99650.59
2023-04-23T10:04:13.334Z,99654.00
2023-04-23T10:07:20.456Z,99654.34
2023-04-23T10:10:23.167Z,99651.41
2023-04-23T10:13:27.566Z,99638.97
2023-04-23T10:16:38.816Z,99636.84
2023-04-23T10:19:51.494Z,99631.66
2023-04-23T10:22:56.380Z,99632.75
2023-04-23T10:26:02.369Z,99621.78
2023-04-23T10:29:08.712Z,99619.44
2023-04-23T10:32:13.642Z,99625.75
2023-04-23T10:35:16.147Z,99626.22
2023-04-23T10:38:19.087Z,99630.69
2023-04-23T10:41:27.945Z,99637.81
2023-04-23T10:44:56.567Z,99631.69
2023-04-23T10:47:59.636Z,99633.06
2023-04-23T10:51:30.516Z,99632.81
2023-04-23T10:54:30.055Z,99635.94
2023-04-23T10:57:32.581Z,99636.41
2023-04-23T11:00:46.412Z,99633.13
2023-04-23T11:03:53.331Z,99624.59
2023-04-23T11:06:59.628Z,99628.19
2023-04-23T11:10:13.015Z,99634.34
2023-04-23T11:13:24.444Z,99645.50
2023-04-23T11:16:26.966Z,99654.66
2023-04-23T11:19:31.738Z,99656.00
2023-04-23T11:22:36.303Z,99665.16
2023-04-23T11:25:42.968Z,99661.88
2023-04-23T11:28:45.981Z,99666.91
2023-04-23T11:32:01.339Z,99676.91
2023-04-23T11:35:11.429Z,99682.84
2023-04-23T11:38:15.060Z,99679.88
2023-04-23T11:41:23.847Z,99688.69
2023-04-23T11:44:26.393Z,99686.94
2023-04-23T11:47:28.935Z,99684.41
2023-04-23T11:50:35.475Z,99686.09
2023-04-23T11:53:45.220Z,99680.25
2023-04-23T11:56:47.674Z,99683.22
2023-04-23T11:59:50.133Z,99681.81
2023-04-23T12:02:54.301Z,99689.09
2023-04-23T12:06:00.134Z,99690.91
2023-04-23T12:09:02.565Z,99694.09
2023-04-23T12:12:06.115Z,99687.41
2023-04-23T12:15:09.577Z,99681.53
2023-04-23T12:18:12.497Z,99677.25
2023-04-23T12:21:17.532Z,99655.88
2023-04-23T12:24:20.306Z,99637.44
2023-04-23T12:27:23.586Z,99639.41
2023-04-23T12:30:29.888Z,99635.44
2023-04-23T12:33:32.393Z,99643.03
2023-04-23T12:36:37.817Z,99642.38
2023-04-23T12:39:40.579Z,99688.25
2023-04-23T12:42:43.253Z,99709.59
2023-04-23T12:45:46.272Z,99714.75
2023-04-23T12:48:48.757Z,99716.94
2023-04-23T12:51:53.090Z,99728.78
2023-04-23T12:54:57.474Z,99731.28
2023-04-23T12:58:00.358Z,99729.41
2023-04-23T13:01:02.883Z,99731.22
2023-04-23T13:04:05.701Z,99741.16
2023-04-23T13:07:10.025Z,99722.69
2023-04-23T13:10:12.538Z,99729.38
2023-04-23T13:13:14.979Z,99732.13
2023-04-23T13:16:17.534Z,99734.78
2023-04-23T13:19:20.082Z,99727.47
2023-04-23T13:22:28.316Z,99733.59
2023-04-23T13:25:30.846Z,99729.53
2023-04-23T13:28:33.369Z,99724.19
2023-04-23T13:31:35.954Z,99729.38
2023-04-23T13:34:38.525Z,99722.97
2023-04-23T13:37:42.336Z,99723.53
2023-04-23T13:40:44.801Z,99722.13
2023-04-23T13:43:47.372Z,99723.56
2023-04-23T13:46:50.918Z,99720.19
2023-04-23T13:49:53.537Z,99723.13
2023-04-23T13:52:57.402Z,99722.06
2023-04-23T13:56:00.819Z,99729.19
2023-04-23T14:02:09.601Z,99714.28
2023-04-23T14:05:12.370Z,99709.91
2023-04-23T14:08:16.159Z,99707.97
2023-04-23T14:11:19.067Z,99709.66
2023-04-23T14:14:21.555Z,99705.59
2023-04-23T14:17:24.057Z,99705.06
2023-04-23T14:20:26.581Z,99702.47
2023-04-23T14:23:46.898Z,99707.28
2023-04-23T14:26:50.187Z,99709.41
2023-04-23T14:29:58.451Z,99720.56
2023-04-23T14:33:00.959Z,99714.41
2023-04-23T14:36:03.528Z,99709.78
2023-04-23T14:39:07.325Z,99721.31
2023-04-23T14:42:09.959Z,99713.72
2023-04-23T14:45:13.984Z,99708.72
2023-04-23T14:48:16.454Z,99713.72
2023-04-23T14:51:18.941Z,99717.72
2023-04-23T14:54:23.736Z,99714.72
2023-04-23T14:57:27.284Z,99703.44
2023-04-23T15:00:30.225Z,99703.81
2023-04-23T15:03:32.968Z,99697.03
2023-04-23T15:06:35.711Z,99696.94
2023-04-23T15:09:39.668Z,99689.66
2023-04-23T15:12:52.503Z,99691.16
2023-04-23T15:16:00.053Z,99689.19
2023-04-23T15:19:06.230Z,99690.19
2023-04-23T15:22:08.695Z,99686.75
2023-04-23T15:25:12.490Z,99687.38
2023-04-23T15:28:14.967Z,99682.66
2023-04-23T15:31:17.450Z,99672.47
2023-04-23T15:34:19.979Z,99675.34
2023-04-23T15:37:24.080Z,99679.53
2023-04-23T15:40:29.362Z,99678.56
2023-04-23T15:43:31.841Z,99680.22
2023-04-23T15:46:34.303Z,99673.81
2023-04-23T15:49:36.791Z,99672.22
2023-04-23T15:52:41.333Z,99666.47
2023-04-23T15:55:45.137Z,99651.03
2023-04-23T15:58:47.634Z,99659.22
2023-04-23T16:01:50.571Z,99642.06
2023-04-23T16:04:53.178Z,99639.22
2023-04-23T16:07:55.636Z,99641.34
2023-04-23T16:10:59.509Z,99633.81
2023-04-23T16:14:02.032Z,99637.72
2023-04-23T16:17:04.539Z,99640.66
2023-04-23T16:20:08.645Z,99631.13
2023-04-23T16:23:11.686Z,99632.38
2023-04-23T16:26:15.550Z,99633.75
2023-04-23T16:29:22.491Z,99627.03
2023-04-23T16:32:25.759Z,99619.97
2023-04-23T16:35:28.378Z,99622.56
2023-04-23T16:38:30.880Z,99616.59
2023-04-23T16:41:34.930Z,99620.16
2023-04-23T16:44:37.416Z,99616.38
2023-04-23T16:47:39.912Z,99614.69
2023-04-23T16:50:43.083Z,99609.66
2023-04-23T16:53:45.822Z,99610.91
2023-04-23T16:56:49.672Z,99610.34
2023-04-23T16:59:52.848Z,99611.41
2023-04-23T17:02:56.989Z,99619.41
2023-04-23T17:06:09.065Z,99611.22
2023-04-23T17:09:11.699Z,99609.19
2023-04-23T17:12:15.478Z,99601.28
2023-04-23T17:15:18.212Z,99600.25
2023-04-23T17:18:20.704Z,99593.06
2023-04-23T17:21:23.807Z,99595.44
2023-04-23T17:24:26.426Z,99597.22
2023-04-23T17:27:30.224Z,99587.53
2023-04-23T17:30:32.755Z,99585.88
2023-04-23T17:33:35.496Z,99589.44
2023-04-23T17:36:37.968Z,99587.31
2023-04-23T17:39:40.450Z,99585.25
2023-04-23T17:42:44.272Z,99589.66
2023-04-23T17:45:47.653Z,99582.09
2023-04-23T17:48:50.362Z,99580.88
2023-04-23T17:51:52.856Z,99573.41
2023-04-23T17:54:56.726Z,99557.78
2023-04-23T17:58:05.113Z,99560.41
2023-04-23T18:01:08.512Z,99569.03
2023-04-23T18:04:11.419Z,99571.88
2023-04-23T18:07:14.018Z,99576.59
2023-04-23T18:10:16.557Z,99575.78
2023-04-23T18:13:20.481Z,99577.09
2023-04-23T18:16:23.048Z,99578.88
2023-04-23T18:19:25.606Z,99574.25
2023-04-23T18:22:28.197Z,99585.78
2023-04-23T18:25:30.774Z,99578.91
2023-04-23T18:28:37.043Z,99579.66
2023-04-23T18:31:39.577Z,99576.22
2023-04-23T18:34:42.392Z,99578.84
2023-04-23T18:37:53.809Z,99578.75
2023-04-23T18:40:59.015Z,99583.66
2023-04-23T18:44:02.821Z,99588.03
2023-04-23T18:47:05.337Z,99580.13
2023-04-23T18:50:11.721Z,99575.72
2023-04-23T18:53:14.181Z,99580.38
2023-04-23T18:56:16.705Z,99579.69
2023-04-23T18:59:20.581Z,99586.53
2023-04-23T19:02:34.348Z,99586.00
2023-04-23T19:05:37.967Z,99580.41
2023-04-23T19:08:42.314Z,99581.03
2023-04-23T19:11:45.181Z,99577.44
2023-04-23T19:14:48.990Z,99571.59
2023-04-23T19:17:51.553Z,99573.16
2023-04-23T19:20:54.249Z,99561.41
2023-04-23T19:23:56.739Z,99553.22
2023-04-23T19:26:59.205Z,99545.47
2023-04-23T19:30:03.033Z,99534.06
2023-04-23T19:33:05.580Z,99531.31
2023-04-23T19:36:08.978Z,99516.31
2023-04-23T19:39:11.504Z,99517.50
2023-04-23T19:42:14.017Z,99509.78
2023-04-23T19:45:18.435Z,99509.78
2023-04-23T19:48:20.935Z,99507.34
2023-04-23T19:51:27.764Z,99511.53
2023-04-23T19:54:30.520Z,99505.13
2023-04-23T19:57:33.077Z,99504.72
2023-04-23T20:00:41.449Z,99501.44
2023-04-23T20:03:47.631Z,99486.38
2023-04-23T20:06:50.150Z,99492.13
2023-04-23T20:09:52.620Z,99482.97
2023-04-23T20:12:55.085Z,99482.34
2023-04-23T20:15:59.204Z,99475.56
2023-04-23T20:19:01.840Z,99469.19
2023-04-23T20:22:04.374Z,99463.75
2023-04-23T20:25:08.117Z,99458.09
2023-04-23T20:28:11.838Z,99452.84
2023-04-23T20:31:15.783Z,99443.69
2023-04-23T20:34:18.288Z,99424.06
2023-04-23T20:37:21.767Z,99415.41
2023-04-23T20:40:25.150Z,99396.75
2023-04-23T20:43:27.687Z,99387.13
2023-04-23T20:46:33.181Z,99372.28
2023-04-23T20:49:35.870Z,99361.56
2023-04-23T20:52:38.460Z,99352.97
2023-04-23T20:55:40.933Z,99345.59
2023-04-23T20:58:43.694Z,99334.53
